Impacts METAR Board
IDs:

KCLE - Cleveland/Hopkins In, OH, US

Updated at: 0200 UTC 23 Sep 2018
Potential Impact None Slight Moderate High
Time 22/14Z 22/15Z 22/16Z 22/17Z 22/18Z 22/19Z 22/20Z 22/21Z 22/22Z 22/23Z 23/00Z 23/01Z 23/02Z
Temp62 62 63 62 63 63 63 63 62 61 61 61 59
Dewpt48 51 51 49 50 49 49 50 50 50 51 49 50
Altim30.30 30.31 30.31 30.30 30.29 30.29 30.27 30.26 30.25 30.25 30.25 30.24 30.25
VIS10 10 10 10 10 10 10 10 10 10 10 10 10
CIG40 26 38 36 38 240 32 34 33 35 32 32 250
CoverOVCOVCOVCOVCOVCOVCOVCBKNOVCOVCBKNBKNBKN
FltCatVFRMVFRVFRVFRVFRVFRVFRVFRVFRVFRVFRVFRVFR
WX--------------------------
WDir40103050301010350203603060100
WSpd11 11 12 9 10 7 8 9 8 8 9 7 6
WGst-- -- -- -- -- -- -- -- -- -- -- -- --
Raw hourly METARs
KCLE 221351Z 04011KT 10SM OVC040 17/09 A3030 RMK AO2 SLP256 T01670089 $
KCLE 221451Z 01011KT 10SM BKN026 OVC036 17/11 A3031 RMK AO2 SLP261 T01670106 51015 $
KCLE 221551Z 03012KT 10SM SCT028 OVC038 17/11 A3031 RMK AO2 SLP261 T01720106 $
KCLE 221651Z 05009KT 10SM SCT028 OVC036 17/09 A3030 RMK AO2 SLP258 T01670094 $
KCLE 221751Z 03010KT 10SM FEW028 OVC038 17/10 A3029 RMK AO2 SLP255 T01720100 10172 20156 58005 $
KCLE 221851Z 01007KT 10SM SCT032 OVC240 17/09 A3029 RMK AO2 SLP254 T01720094 $
KCLE 221951Z 01008KT 10SM BKN032 OVC240 17/09 A3027 RMK AO2 SLP250 T01720094 $
KCLE 222051Z 35009KT 10SM BKN034 BKN250 17/10 A3026 RMK AO2 SLP244 T01720100 58012 $
KCLE 222151Z 02008KT 10SM BKN033 OVC250 17/10 A3025 RMK AO2 SLP244 T01670100 $
KCLE 222251Z 36008KT 10SM BKN035 OVC250 16/10 A3025 RMK AO2 SLP244 T01610100 $
KCLE 222351Z 03009KT 10SM BKN032 BKN250 16/11 A3025 RMK AO2 SLP241 T01610106 10183 20161 58003 $
KCLE 230051Z 06007KT 10SM BKN032 BKN250 16/09 A3024 RMK AO2 SLP239 T01610094 $
KCLE 230151Z 10006KT 10SM FEW032 BKN250 15/10 A3025 RMK AO2 SLP241 T01500100 $



Page loaded:  02:08 UTC  |   07:08 PM Pacific  |   08:08 PM Mountain  |   09:08 PM Central  |   10:08 PM Eastern

 

ADVISORIES

FORECASTS

FORECASTS

OBSERVATIONS

USER TOOLS

ABOUT US